createdAt,value
2023-02-14T00:01:11.719Z,14.70
2023-02-14T00:03:38.093Z,14.85
2023-02-14T00:06:04.433Z,15.51
2023-02-14T00:08:30.815Z,15.22
2023-02-14T00:10:57.380Z,14.97
2023-02-14T00:13:23.923Z,15.17
2023-02-14T00:15:50.387Z,14.62
2023-02-14T00:18:18.431Z,14.98
2023-02-14T00:20:45.834Z,15.07
2023-02-14T00:23:12.156Z,14.91
2023-02-14T00:25:38.465Z,14.41
2023-02-14T00:28:04.786Z,14.90
2023-02-14T00:30:31.201Z,14.97
2023-02-14T00:32:57.695Z,14.94
2023-02-14T00:35:24.108Z,15.12
2023-02-14T00:37:50.483Z,14.82
2023-02-14T00:40:16.956Z,15.25
2023-02-14T00:42:43.323Z,15.11
2023-02-14T00:45:09.656Z,14.73
2023-02-14T00:47:36.031Z,14.89
2023-02-14T00:50:02.355Z,15.25
2023-02-14T00:52:28.669Z,14.80
2023-02-14T00:54:55.045Z,14.84
2023-02-14T00:57:21.372Z,14.91
2023-02-14T00:59:47.707Z,14.68
2023-02-14T01:02:14.212Z,15.02
2023-02-14T01:04:40.601Z,14.75
2023-02-14T01:07:06.913Z,14.89
2023-02-14T01:09:33.227Z,15.18
2023-02-14T01:11:59.604Z,14.87
2023-02-14T01:14:25.971Z,15.44
2023-02-14T01:16:52.403Z,14.73
2023-02-14T01:19:18.736Z,15.35
2023-02-14T01:21:45.110Z,15.04
2023-02-14T01:24:11.460Z,15.12
2023-02-14T01:26:37.816Z,15.02
2023-02-14T01:29:04.204Z,15.25
2023-02-14T01:31:30.653Z,15.78
2023-02-14T01:33:57.084Z,15.42
2023-02-14T01:36:23.430Z,15.63
2023-02-14T01:38:49.762Z,16.01
2023-02-14T01:41:16.091Z,15.37
2023-02-14T01:43:42.393Z,15.91
2023-02-14T01:46:08.768Z,15.62
2023-02-14T01:48:35.164Z,15.89
2023-02-14T01:51:01.768Z,15.82
2023-02-14T01:53:28.318Z,15.79
2023-02-14T01:55:54.623Z,15.99
2023-02-14T01:58:20.999Z,15.35
2023-02-14T02:00:47.337Z,15.90
2023-02-14T02:03:13.717Z,16.45
2023-02-14T02:05:40.043Z,15.96
2023-02-14T02:08:06.436Z,15.76
2023-02-14T02:10:32.815Z,16.07
2023-02-14T02:12:59.132Z,16.36
2023-02-14T02:15:25.455Z,16.52
2023-02-14T02:17:51.774Z,16.71
2023-02-14T02:20:18.079Z,16.47
2023-02-14T02:22:44.411Z,16.69
2023-02-14T02:25:10.715Z,16.85
2023-02-14T02:27:37.027Z,17.21
2023-02-14T02:30:03.459Z,16.98
2023-02-14T02:32:29.821Z,16.30
2023-02-14T02:34:56.218Z,16.97
2023-02-14T02:37:22.552Z,16.85
2023-02-14T02:39:48.927Z,17.25
2023-02-14T02:42:15.308Z,17.53
2023-02-14T02:44:41.712Z,17.48
2023-02-14T02:47:08.111Z,17.76
2023-02-14T02:49:34.489Z,17.71
2023-02-14T02:52:00.799Z,17.50
2023-02-14T02:54:27.115Z,17.56
2023-02-14T02:56:53.474Z,17.51
2023-02-14T02:59:19.814Z,17.49
2023-02-14T03:01:46.218Z,17.60
2023-02-14T03:04:12.673Z,18.30
2023-02-14T03:06:39.033Z,18.49
2023-02-14T03:09:05.380Z,18.00
2023-02-14T03:11:31.718Z,18.29
2023-02-14T03:13:58.070Z,18.01
2023-02-14T03:16:24.411Z,17.97
2023-02-14T03:18:50.774Z,18.53
2023-02-14T03:21:17.152Z,18.09
2023-02-14T03:23:43.546Z,18.32
2023-02-14T03:26:09.870Z,18.45
2023-02-14T03:28:36.241Z,18.29
2023-02-14T03:31:03.150Z,18.52
2023-02-14T03:33:29.797Z,19.25
2023-02-14T03:35:56.211Z,18.66
2023-02-14T03:38:22.589Z,18.98
2023-02-14T03:40:49.100Z,19.12
2023-02-14T03:43:15.492Z,19.38
2023-02-14T03:45:41.855Z,19.48
2023-02-14T03:48:08.171Z,19.64
2023-02-14T03:50:34.499Z,19.54
2023-02-14T03:53:00.861Z,19.21
2023-02-14T03:55:27.222Z,19.19
2023-02-14T03:57:53.725Z,19.18
2023-02-14T04:00:20.055Z,19.25
2023-02-14T04:02:46.404Z,18.97
2023-02-14T04:05:12.743Z,18.62
2023-02-14T04:07:39.092Z,18.35
2023-02-14T04:10:05.420Z,18.58
2023-02-14T04:12:37.709Z,18.62
2023-02-14T04:15:04.478Z,18.65
2023-02-14T04:17:30.810Z,18.27
2023-02-14T04:19:57.189Z,18.09
2023-02-14T04:22:23.581Z,18.40
2023-02-14T04:24:49.951Z,18.35
2023-02-14T04:27:16.308Z,18.56
2023-02-14T04:29:42.710Z,18.45
2023-02-14T04:32:09.163Z,18.63
2023-02-14T04:34:35.651Z,18.23
2023-02-14T04:37:01.993Z,18.30
2023-02-14T04:39:28.314Z,18.43
2023-02-14T04:41:54.688Z,18.71
2023-02-14T04:44:21.006Z,18.07
2023-02-14T04:46:47.454Z,17.93
2023-02-14T04:49:13.831Z,18.66
2023-02-14T04:51:40.158Z,18.68
2023-02-14T04:54:06.526Z,18.55
2023-02-14T04:56:32.882Z,18.39
2023-02-14T04:58:59.260Z,19.02
2023-02-14T05:01:25.592Z,18.76
2023-02-14T05:03:51.959Z,18.34
2023-02-14T05:06:18.347Z,18.58
2023-02-14T05:08:44.654Z,18.92
2023-02-14T05:11:10.972Z,19.06
2023-02-14T05:13:37.300Z,19.04
2023-02-14T05:16:03.617Z,19.21
2023-02-14T05:18:29.959Z,18.69
2023-02-14T05:20:56.308Z,18.88
2023-02-14T05:23:22.667Z,19.31
2023-02-14T05:25:49.032Z,19.04
2023-02-14T05:28:15.531Z,18.87
2023-02-14T05:30:41.973Z,19.02
2023-02-14T05:33:08.456Z,19.26
2023-02-14T05:35:34.787Z,19.19
2023-02-14T05:38:01.125Z,19.41
2023-02-14T05:40:27.444Z,19.83
2023-02-14T05:42:53.824Z,18.94
2023-02-14T05:45:20.201Z,19.59
2023-02-14T05:47:46.529Z,19.57
2023-02-14T05:50:12.862Z,20.78
2023-02-14T05:52:39.239Z,19.97
2023-02-14T05:55:05.605Z,19.92
2023-02-14T05:57:31.965Z,20.46
2023-02-14T05:59:58.302Z,20.22
2023-02-14T06:02:24.681Z,20.25
2023-02-14T06:04:51.090Z,20.60
2023-02-14T06:07:17.497Z,20.87
2023-02-14T06:09:43.843Z,21.22
2023-02-14T06:12:10.196Z,21.08
2023-02-14T06:14:36.532Z,21.03
2023-02-14T06:17:02.925Z,21.41
2023-02-14T06:19:29.337Z,21.15
2023-02-14T06:21:55.711Z,20.54
2023-02-14T06:24:22.045Z,20.96
2023-02-14T06:26:48.542Z,20.93
2023-02-14T06:29:14.919Z,21.08
2023-02-14T06:31:41.325Z,21.05
2023-02-14T06:34:07.844Z,21.18
2023-02-14T06:36:34.161Z,21.13
2023-02-14T06:39:00.537Z,21.04
2023-02-14T06:41:26.880Z,21.04
2023-02-14T06:43:53.216Z,21.46
2023-02-14T06:46:19.624Z,20.93
2023-02-14T06:48:46.062Z,20.02
2023-02-14T06:51:12.416Z,21.35
2023-02-14T06:53:38.773Z,21.59
2023-02-14T06:56:05.112Z,21.30
2023-02-14T06:58:31.484Z,21.66
2023-02-14T07:00:58.053Z,21.55
2023-02-14T07:03:24.553Z,21.41
2023-02-14T07:05:50.917Z,21.62
2023-02-14T07:08:17.302Z,21.81
2023-02-14T07:10:43.620Z,21.65
2023-02-14T07:13:09.987Z,21.49
2023-02-14T07:15:36.333Z,21.59
2023-02-14T07:18:02.690Z,22.06
2023-02-14T07:20:29.065Z,22.10
2023-02-14T07:22:55.464Z,21.73
2023-02-14T07:25:21.875Z,21.70
2023-02-14T07:27:48.252Z,22.50
2023-02-14T07:30:14.655Z,22.52
2023-02-14T07:32:41.095Z,22.48
2023-02-14T07:35:07.427Z,22.42
2023-02-14T07:37:33.785Z,22.19
2023-02-14T07:40:00.207Z,22.26
2023-02-14T07:42:26.588Z,22.10
2023-02-14T07:44:52.945Z,22.85
2023-02-14T07:47:19.310Z,23.24
2023-02-14T07:49:45.629Z,22.94
2023-02-14T07:52:11.992Z,23.02
2023-02-14T07:54:38.386Z,23.83
2023-02-14T07:57:04.750Z,23.89
2023-02-14T07:59:31.081Z,23.91
2023-02-14T08:01:57.514Z,23.36
2023-02-14T08:04:23.903Z,23.37
2023-02-14T08:06:50.240Z,23.25
2023-02-14T08:09:16.577Z,23.19
2023-02-14T08:11:42.924Z,23.51
2023-02-14T08:14:09.294Z,23.48
2023-02-14T08:16:35.965Z,23.39
2023-02-14T08:19:02.509Z,24.06
2023-02-14T08:21:28.887Z,24.72
2023-02-14T08:23:55.239Z,24.57
2023-02-14T08:26:21.567Z,23.80
2023-02-14T08:28:47.932Z,24.50
2023-02-14T08:31:15.904Z,24.27
2023-02-14T08:33:43.651Z,24.68
2023-02-14T08:36:09.999Z,24.49
2023-02-14T08:38:36.354Z,24.99
2023-02-14T08:41:05.847Z,24.50
2023-02-14T08:43:34.396Z,24.71
2023-02-14T08:46:01.088Z,24.50
2023-02-14T08:48:27.746Z,24.75
2023-02-14T08:50:54.204Z,24.26
2023-02-14T08:53:20.583Z,24.49
2023-02-14T08:55:46.970Z,23.60
2023-02-14T08:58:13.354Z,23.33
2023-02-14T09:00:39.772Z,24.24
2023-02-14T09:03:06.150Z,24.29
2023-02-14T09:05:32.528Z,23.54
2023-02-14T09:07:58.952Z,23.98
2023-02-14T09:10:25.369Z,23.65
2023-02-14T09:12:51.753Z,24.39
2023-02-14T09:15:18.158Z,24.91
2023-02-14T09:17:44.534Z,24.94
2023-02-14T09:20:10.950Z,25.03
2023-02-14T09:22:37.345Z,25.09
2023-02-14T09:25:03.729Z,24.95
2023-02-14T09:27:30.123Z,25.65
2023-02-14T09:29:56.514Z,25.03
2023-02-14T09:32:22.951Z,25.51
2023-02-14T09:34:49.360Z,25.63
2023-02-14T09:37:15.670Z,25.67
2023-02-14T09:39:41.992Z,25.34
2023-02-14T09:42:08.316Z,24.83
2023-02-14T09:44:34.673Z,25.14
2023-02-14T09:47:01.041Z,25.21
2023-02-14T09:49:27.513Z,24.83
2023-02-14T09:51:54.034Z,24.63
2023-02-14T09:54:20.426Z,25.21
2023-02-14T09:56:51.302Z,24.71
2023-02-14T09:59:18.310Z,24.39
2023-02-14T10:01:44.691Z,24.56
2023-02-14T10:04:11.042Z,24.41
2023-02-14T10:06:37.364Z,23.93
2023-02-14T10:09:03.704Z,23.23
2023-02-14T10:11:30.039Z,23.56
2023-02-14T10:13:56.394Z,22.71
2023-02-14T10:16:24.095Z,22.84
2023-02-14T10:18:52.083Z,22.24
2023-02-14T10:21:18.471Z,22.26
2023-02-14T10:23:44.875Z,22.02
2023-02-14T10:26:11.201Z,21.93
2023-02-14T10:28:37.564Z,22.28
2023-02-14T10:31:04.155Z,21.91
2023-02-14T10:33:30.598Z,22.07
2023-02-14T10:35:56.970Z,21.41
2023-02-14T10:38:23.432Z,21.73
2023-02-14T10:40:49.748Z,21.12
2023-02-14T10:43:16.120Z,21.48
2023-02-14T10:45:42.483Z,21.32
2023-02-14T10:48:08.811Z,22.23
2023-02-14T10:50:35.194Z,21.01
2023-02-14T10:53:01.576Z,21.42
2023-02-14T10:55:32.455Z,21.23
2023-02-14T10:57:59.315Z,21.75
2023-02-14T11:00:25.639Z,21.27
2023-02-14T11:02:51.960Z,20.62
2023-02-14T11:05:18.306Z,21.30
2023-02-14T11:07:44.691Z,20.68
2023-02-14T11:10:11.087Z,20.39
2023-02-14T11:12:37.460Z,20.28
2023-02-14T11:15:03.861Z,20.57
2023-02-14T11:17:30.212Z,20.31
2023-02-14T11:19:56.566Z,19.67
2023-02-14T11:22:22.947Z,19.65
2023-02-14T11:24:49.320Z,19.78
2023-02-14T11:27:15.726Z,19.36
2023-02-14T11:29:42.091Z,19.04
2023-02-14T11:32:08.479Z,19.44
2023-02-14T11:34:34.856Z,18.40
2023-02-14T11:37:01.196Z,18.24
2023-02-14T11:39:27.523Z,18.45
2023-02-14T11:41:53.890Z,18.16
2023-02-14T11:44:20.211Z,18.58
2023-02-14T11:46:53.135Z,18.71
2023-02-14T11:49:20.135Z,18.58
2023-02-14T11:51:46.503Z,18.12
2023-02-14T11:54:12.831Z,18.33
2023-02-14T11:56:39.149Z,18.24
2023-02-14T11:59:05.540Z,17.96
2023-02-14T12:01:31.891Z,17.50
2023-02-14T12:03:58.336Z,17.84
2023-02-14T12:06:24.744Z,18.03
2023-02-14T12:08:51.064Z,17.65
2023-02-14T12:11:17.383Z,17.94
2023-02-14T12:13:43.705Z,16.81
2023-02-14T12:16:10.103Z,17.13
2023-02-14T12:18:36.552Z,16.57
2023-02-14T12:21:03.159Z,16.25
2023-02-14T12:23:29.566Z,16.36
2023-02-14T12:25:55.907Z,16.39
2023-02-14T12:28:22.386Z,16.64
2023-02-14T12:30:48.735Z,16.49
2023-02-14T12:33:15.093Z,16.20
2023-02-14T12:35:41.450Z,16.92
2023-02-14T12:38:07.762Z,15.85
2023-02-14T12:40:34.128Z,15.96
2023-02-14T12:43:00.533Z,16.47
2023-02-14T12:45:26.942Z,16.27
2023-02-14T12:47:53.266Z,15.74
2023-02-14T12:50:19.589Z,16.04
2023-02-14T12:52:45.899Z,15.56
2023-02-14T12:55:12.207Z,15.88
2023-02-14T12:57:38.538Z,15.51
2023-02-14T13:00:04.885Z,15.75
2023-02-14T13:02:31.349Z,15.39
2023-02-14T13:04:57.732Z,15.82
2023-02-14T13:07:24.066Z,15.97
2023-02-14T13:09:50.401Z,15.71
2023-02-14T13:12:16.915Z,15.25
2023-02-14T13:14:43.243Z,15.61
2023-02-14T13:17:09.614Z,15.43
2023-02-14T13:19:35.980Z,15.78
2023-02-14T13:22:02.352Z,15.89
2023-02-14T13:24:28.679Z,15.79
2023-02-14T13:26:55.033Z,15.58
2023-02-14T13:29:21.424Z,15.35
2023-02-14T13:31:47.846Z,15.02
2023-02-14T13:34:14.266Z,15.64
2023-02-14T13:36:40.624Z,15.49
2023-02-14T13:39:07.015Z,15.06
2023-02-14T13:41:33.548Z,15.37
2023-02-14T13:43:59.897Z,14.63
2023-02-14T13:46:26.269Z,14.51
2023-02-14T13:48:52.829Z,14.58
2023-02-14T13:51:19.219Z,14.82
2023-02-14T13:53:45.593Z,14.67
2023-02-14T13:56:11.969Z,15.08
2023-02-14T13:58:38.294Z,14.76
2023-02-14T14:01:04.706Z,14.89
2023-02-14T14:03:31.469Z,14.69
2023-02-14T14:05:58.101Z,14.96
2023-02-14T14:08:24.675Z,14.76
2023-02-14T14:10:51.079Z,15.33
2023-02-14T14:13:17.474Z,14.68
2023-02-14T14:15:43.834Z,14.38
2023-02-14T14:18:10.161Z,14.63
2023-02-14T14:20:36.473Z,14.50
2023-02-14T14:23:02.839Z,14.04
2023-02-14T14:25:37.726Z,13.54
2023-02-14T14:28:04.048Z,14.76
2023-02-14T14:30:30.536Z,14.70
2023-02-14T14:32:57.032Z,14.37
2023-02-14T14:35:23.410Z,13.78
2023-02-14T14:37:49.825Z,14.06
2023-02-14T14:40:16.275Z,14.22
2023-02-14T14:42:42.610Z,14.05
2023-02-14T14:45:08.981Z,13.70
2023-02-14T14:47:35.342Z,13.78
2023-02-14T14:50:01.715Z,13.77
2023-02-14T14:52:28.103Z,13.82
2023-02-14T14:54:54.414Z,13.64
2023-02-14T14:57:20.779Z,12.85
2023-02-14T14:59:47.178Z,13.34
2023-02-14T15:02:13.504Z,12.96
2023-02-14T15:04:39.898Z,13.47
2023-02-14T15:07:06.283Z,13.03
2023-02-14T15:09:32.664Z,13.57
2023-02-14T15:11:58.990Z,12.78
2023-02-14T15:14:25.441Z,13.20
2023-02-14T15:16:51.861Z,12.54
2023-02-14T15:19:18.253Z,13.06
2023-02-14T15:21:44.897Z,12.71
2023-02-14T15:24:11.244Z,12.69
2023-02-14T15:26:37.586Z,12.82
2023-02-14T15:29:03.967Z,12.92
2023-02-14T15:31:30.471Z,12.53
2023-02-14T15:33:56.958Z,12.42
2023-02-14T15:36:24.176Z,12.72
2023-02-14T15:38:50.506Z,12.56
2023-02-14T15:41:16.876Z,12.19
2023-02-14T15:43:43.274Z,12.56
2023-02-14T15:46:09.649Z,12.23
2023-02-14T15:48:36.011Z,12.14
2023-02-14T15:51:02.555Z,12.26
2023-02-14T15:53:28.999Z,11.68
2023-02-14T15:55:55.353Z,12.30
2023-02-14T15:58:21.696Z,12.50
2023-02-14T16:00:48.027Z,12.21
2023-02-14T16:03:14.415Z,11.79
2023-02-14T16:05:40.730Z,12.31
2023-02-14T16:08:07.052Z,12.63
2023-02-14T16:10:33.436Z,12.30
2023-02-14T16:12:59.792Z,12.51
2023-02-14T16:15:26.226Z,12.30
2023-02-14T16:17:52.633Z,12.17
2023-02-14T16:20:18.952Z,12.37
2023-02-14T16:22:45.265Z,12.58
2023-02-14T16:25:11.612Z,12.04
2023-02-14T16:27:37.957Z,12.29
2023-02-14T16:30:04.470Z,12.59
2023-02-14T16:32:30.969Z,12.10
2023-02-14T16:34:57.352Z,12.60
2023-02-14T16:37:23.716Z,12.21
2023-02-14T16:39:50.071Z,12.18
2023-02-14T16:42:16.442Z,12.32
2023-02-14T16:44:42.859Z,12.60
2023-02-14T16:47:09.241Z,12.07
2023-02-14T16:49:35.611Z,11.94
2023-02-14T16:52:01.958Z,12.52
2023-02-14T16:54:28.258Z,12.63
2023-02-14T16:56:54.616Z,12.80
2023-02-14T16:59:20.947Z,12.53
2023-02-14T17:01:47.370Z,12.74
2023-02-14T17:04:13.964Z,12.54
2023-02-14T17:06:40.333Z,12.58
2023-02-14T17:09:06.715Z,12.26
2023-02-14T17:11:33.063Z,12.67
2023-02-14T17:13:59.435Z,12.34
2023-02-14T17:16:25.859Z,12.40
2023-02-14T17:18:52.207Z,12.58
2023-02-14T17:21:18.548Z,12.67
2023-02-14T17:23:44.930Z,12.54
2023-02-14T17:26:11.339Z,12.36
2023-02-14T17:28:37.659Z,12.54
2023-02-14T17:31:04.582Z,12.59
2023-02-14T17:33:31.146Z,12.64
2023-02-14T17:35:57.522Z,12.83
2023-02-14T17:38:23.885Z,13.11
2023-02-14T17:40:50.269Z,12.96
2023-02-14T17:43:16.597Z,12.41
2023-02-14T17:45:42.978Z,12.78
2023-02-14T17:48:11.677Z,12.62
2023-02-14T17:50:38.169Z,12.79
2023-02-14T17:53:04.651Z,13.07
2023-02-14T17:55:31.030Z,12.90
2023-02-14T17:57:57.385Z,13.00
2023-02-14T18:00:23.740Z,13.22
2023-02-14T18:02:50.095Z,13.30
2023-02-14T18:05:16.465Z,13.32
2023-02-14T18:07:42.792Z,13.42
2023-02-14T18:10:09.144Z,13.28
2023-02-14T18:12:35.524Z,13.58
2023-02-14T18:15:01.841Z,13.90
2023-02-14T18:17:28.224Z,14.22
2023-02-14T18:19:54.624Z,14.26
2023-02-14T18:22:20.955Z,14.20
2023-02-14T18:24:47.316Z,13.90
2023-02-14T18:27:13.660Z,13.90
2023-02-14T18:29:40.018Z,13.98
2023-02-14T18:32:06.481Z,13.83
2023-02-14T18:34:32.933Z,14.54
2023-02-14T18:36:59.335Z,15.07
2023-02-14T18:39:25.702Z,14.30
2023-02-14T18:41:52.069Z,13.88
2023-02-14T18:44:18.450Z,14.59
2023-02-14T18:46:44.823Z,14.69
2023-02-14T18:49:11.188Z,14.37
2023-02-14T18:51:37.558Z,14.91
2023-02-14T18:54:03.862Z,15.39
2023-02-14T18:56:30.240Z,14.92
2023-02-14T18:58:56.571Z,15.40
2023-02-14T19:01:22.944Z,15.05
2023-02-14T19:03:49.366Z,15.01
2023-02-14T19:06:15.691Z,15.49
2023-02-14T19:08:42.060Z,14.32
2023-02-14T19:11:08.433Z,14.50
2023-02-14T19:13:34.763Z,14.94
2023-02-14T19:16:01.173Z,14.92
2023-02-14T19:18:27.529Z,14.54
2023-02-14T19:20:53.853Z,14.72
2023-02-14T19:23:20.252Z,14.39
2023-02-14T19:25:46.658Z,14.51
2023-02-14T19:28:13.023Z,15.06
2023-02-14T19:30:39.409Z,14.69
2023-02-14T19:33:05.864Z,14.54
2023-02-14T19:35:32.529Z,15.04
2023-02-14T19:37:58.910Z,14.81
2023-02-14T19:40:25.288Z,14.62
2023-02-14T19:42:52.129Z,14.58
2023-02-14T19:45:18.531Z,14.62
2023-02-14T19:47:47.395Z,14.57
2023-02-14T19:50:14.013Z,14.35
2023-02-14T19:52:40.419Z,14.80
2023-02-14T19:55:06.742Z,14.82
2023-02-14T19:57:33.117Z,14.68
2023-02-14T19:59:59.443Z,14.48
2023-02-14T20:02:25.822Z,15.12
2023-02-14T20:04:52.149Z,14.88
2023-02-14T20:07:18.497Z,14.92
2023-02-14T20:09:44.816Z,15.37
2023-02-14T20:12:11.213Z,15.43
2023-02-14T20:14:50.393Z,15.05
2023-02-14T20:17:17.918Z,15.39
2023-02-14T20:19:44.327Z,15.69
2023-02-14T20:22:10.646Z,15.19
2023-02-14T20:24:36.998Z,15.36
2023-02-14T20:27:03.356Z,15.87
2023-02-14T20:29:29.684Z,15.82
2023-02-14T20:31:56.094Z,16.36
2023-02-14T20:34:22.483Z,16.03
2023-02-14T20:36:48.853Z,16.78
2023-02-14T20:39:15.247Z,16.08
2023-02-14T20:41:41.626Z,16.14
2023-02-14T20:44:08.041Z,16.39
2023-02-14T20:46:34.424Z,15.91
2023-02-14T20:49:00.804Z,16.03
2023-02-14T20:51:27.179Z,16.59
2023-02-14T20:53:53.495Z,16.00
2023-02-14T20:56:19.835Z,16.40
2023-02-14T20:58:46.185Z,16.84
2023-02-14T21:01:12.520Z,17.04
2023-02-14T21:03:38.927Z,16.52
2023-02-14T21:06:05.275Z,17.17
2023-02-14T21:08:31.704Z,16.56
2023-02-14T21:10:58.182Z,16.55
2023-02-14T21:13:24.686Z,16.46
2023-02-14T21:15:51.154Z,16.98
2023-02-14T21:18:17.565Z,17.07
2023-02-14T21:20:43.954Z,16.73
2023-02-14T21:23:10.301Z,16.58
2023-02-14T21:25:36.670Z,16.84
2023-02-14T21:28:02.984Z,16.86
2023-02-14T21:30:29.404Z,16.95
2023-02-14T21:32:55.764Z,16.40
2023-02-14T21:35:22.121Z,17.00
2023-02-14T21:37:48.495Z,16.63
2023-02-14T21:40:14.860Z,16.70
2023-02-14T21:42:41.200Z,16.83
2023-02-14T21:45:07.522Z,17.04
2023-02-14T21:47:33.824Z,16.89
2023-02-14T21:50:00.179Z,16.22
2023-02-14T21:52:26.589Z,16.83
2023-02-14T21:54:52.955Z,17.24
2023-02-14T21:57:19.347Z,17.20
2023-02-14T21:59:45.774Z,17.27
2023-02-14T22:02:12.094Z,17.11
2023-02-14T22:04:38.438Z,16.28
2023-02-14T22:07:04.804Z,17.00
2023-02-14T22:09:31.133Z,16.48
2023-02-14T22:11:57.453Z,16.63
2023-02-14T22:14:23.835Z,17.18
2023-02-14T22:16:50.174Z,16.72
2023-02-14T22:19:16.538Z,17.20
2023-02-14T22:21:42.871Z,17.23
2023-02-14T22:24:11.316Z,16.98
2023-02-14T22:26:37.779Z,17.40
2023-02-14T22:29:04.116Z,17.07
2023-02-14T22:31:30.515Z,16.99
2023-02-14T22:33:56.943Z,17.57
2023-02-14T22:36:23.321Z,16.96
2023-02-14T22:38:49.652Z,17.46
2023-02-14T22:41:16.097Z,17.36
2023-02-14T22:43:42.496Z,17.19
2023-02-14T22:46:08.975Z,17.26
2023-02-14T22:48:35.372Z,17.08
2023-02-14T22:51:01.701Z,17.03
2023-02-14T22:53:28.047Z,16.93
2023-02-14T22:55:54.400Z,17.25
2023-02-14T22:58:20.740Z,17.52
2023-02-14T23:00:47.088Z,17.78
2023-02-14T23:03:13.456Z,17.70
2023-02-14T23:05:39.836Z,17.33
2023-02-14T23:08:06.212Z,18.07
2023-02-14T23:10:32.569Z,17.35
2023-02-14T23:12:58.946Z,17.27
2023-02-14T23:15:25.282Z,17.24
2023-02-14T23:17:51.605Z,17.74
2023-02-14T23:20:17.988Z,17.40
2023-02-14T23:22:44.316Z,17.73
2023-02-14T23:25:10.636Z,17.96
2023-02-14T23:27:37.043Z,16.97
2023-02-14T23:30:03.527Z,17.29
2023-02-14T23:32:29.941Z,17.63
2023-02-14T23:34:56.278Z,18.07
2023-02-14T23:37:22.652Z,17.81
2023-02-14T23:39:49.042Z,17.54
2023-02-14T23:42:15.422Z,17.85
2023-02-14T23:44:41.786Z,17.75
2023-02-14T23:47:08.117Z,18.07
2023-02-14T23:49:34.502Z,17.73
2023-02-14T23:52:00.844Z,17.96
2023-02-14T23:54:27.183Z,17.87
2023-02-14T23:56:53.572Z,17.80
2023-02-14T23:59:19.991Z,18.06
